Time;durP1;ratioP1;P1;durP2;ratioP2;P2;SDS_P1;SDS_P2;PMS_P1;PMS_P2;Temp;Humidity;BMP_temperature;BMP_pressure;BME280_temperature;BME280_humidity;BME280_pressure;Samples;Min_cycle;Max_cycle;Signal;HPM_P1;HPM_P2
2024/03/14 00:01:31;;;;;;;23.73;5.20;;;;;;;;;;4997561;28;20053;-95
2024/03/14 00:03:56;;;;;;;20.90;5.35;;;;;;;;;;4997220;28;20080;-96
2024/03/14 00:06:22;;;;;;;21.08;4.70;;;;;;;;;;4998308;28;20430;-95
2024/03/14 00:08:47;;;;;;;12.88;4.35;;;;;;;;;;4997707;28;20018;-96
2024/03/14 00:11:13;;;;;;;21.92;4.18;;;;;;;;;;4997941;28;20518;-96
2024/03/14 00:13:38;;;;;;;18.65;5.65;;;;;;;;;;4997989;28;20029;-96
2024/03/14 00:16:05;;;;;;;23.65;4.30;;;;;;;;;;4997204;28;20117;-96
2024/03/14 00:18:31;;;;;;;20.38;3.70;;;;;;;;;;4996828;28;20030;-95
2024/03/14 00:20:56;;;;;;;24.30;4.07;;;;;;;;;;4996846;28;20022;-96
2024/03/14 00:23:23;;;;;;;16.08;3.75;;;;;;;;;;4997252;28;20049;-95
2024/03/14 00:25:48;;;;;;;21.05;3.30;;;;;;;;;;4996594;28;20096;-96
2024/03/14 00:28:16;;;;;;;12.63;3.13;;;;;;;;;;4999748;28;20026;-96
2024/03/14 00:30:42;;;;;;;14.32;3.03;;;;;;;;;;5002497;28;20028;-95
2024/03/14 00:33:07;;;;;;;23.88;4.20;;;;;;;;;;4996453;28;20412;-95
2024/03/14 00:35:32;;;;;;;22.02;4.43;;;;;;;;;;4995838;28;20015;-95
2024/03/14 00:37:58;;;;;;;16.30;3.60;;;;;;;;;;4995647;28;20031;-95
2024/03/14 00:40:23;;;;;;;17.95;4.10;;;;;;;;;;4995707;28;20033;-96
2024/03/14 00:42:49;;;;;;;24.15;4.15;;;;;;;;;;4998550;28;20346;-96
2024/03/14 00:45:14;;;;;;;14.57;3.58;;;;;;;;;;5000998;28;20030;-96
2024/03/14 00:47:40;;;;;;;22.75;3.85;;;;;;;;;;4995776;28;20072;-95
2024/03/14 00:50:08;;;;;;;14.23;2.85;;;;;;;;;;4999881;28;20026;-95
2024/03/14 00:52:34;;;;;;;20.30;4.18;;;;;;;;;;5006438;28;20053;-96
2024/03/14 00:55:00;;;;;;;13.45;3.65;;;;;;;;;;5004614;28;20026;-96
2024/03/14 00:57:25;;;;;;;13.68;2.90;;;;;;;;;;5005344;28;20022;-96
2024/03/14 00:59:51;;;;;;;19.27;4.28;;;;;;;;;;5004833;28;20022;-96
2024/03/14 01:02:16;;;;;;;12.23;2.78;;;;;;;;;;5005869;28;20021;-96
2024/03/14 01:04:43;;;;;;;19.40;4.55;;;;;;;;;;5003638;28;20147;-96
2024/03/14 01:07:09;;;;;;;20.90;4.00;;;;;;;;;;5001587;28;20018;-96
2024/03/14 01:09:35;;;;;;;18.25;3.70;;;;;;;;;;5003031;28;20477;-96
2024/03/14 01:12:01;;;;;;;13.10;3.38;;;;;;;;;;5003504;28;20107;-96
2024/03/14 01:14:26;;;;;;;16.25;4.57;;;;;;;;;;5003086;28;20493;-96
2024/03/14 01:16:52;;;;;;;16.77;3.45;;;;;;;;;;5002078;28;20089;-96
2024/03/14 01:19:18;;;;;;;12.15;3.47;;;;;;;;;;5001567;28;20030;-96
2024/03/14 01:21:43;;;;;;;19.02;4.57;;;;;;;;;;5001795;28;20101;-96
2024/03/14 01:24:09;;;;;;;20.88;4.70;;;;;;;;;;5004186;28;20536;-96
2024/03/14 01:26:34;;;;;;;18.77;3.42;;;;;;;;;;5002774;28;20018;-96
2024/03/14 01:29:01;;;;;;;16.27;3.38;;;;;;;;;;5002471;28;20022;-96
2024/03/14 01:31:27;;;;;;;21.80;4.32;;;;;;;;;;5001336;28;20024;-96
2024/03/14 01:33:52;;;;;;;13.02;4.00;;;;;;;;;;5000787;28;20022;-96
2024/03/14 01:36:17;;;;;;;28.95;3.22;;;;;;;;;;4999114;28;20025;-96
2024/03/14 01:38:43;;;;;;;17.55;3.45;;;;;;;;;;4999041;28;20040;-96
2024/03/14 01:41:21;;;;;;;20.02;3.88;;;;;;;;;;4998207;28;20022;-96
2024/03/14 01:43:59;;;;;;;26.35;4.50;;;;;;;;;;4997258;28;20101;-96
2024/03/14 01:46:28;;;;;;;20.63;4.70;;;;;;;;;;4996414;28;20025;-96
2024/03/14 01:48:54;;;;;;;20.98;4.10;;;;;;;;;;4996382;28;20484;-96
2024/03/14 01:51:20;;;;;;;17.52;3.83;;;;;;;;;;4995916;28;20018;-96
2024/03/14 01:53:45;;;;;;;26.38;5.63;;;;;;;;;;4995987;28;20491;-96
2024/03/14 01:56:11;;;;;;;15.88;4.57;;;;;;;;;;4995829;28;20381;-96
2024/03/14 01:58:37;;;;;;;20.17;5.20;;;;;;;;;;4995871;28;20396;-96
2024/03/14 02:01:03;;;;;;;23.17;4.72;;;;;;;;;;4997301;28;20049;-96
2024/03/14 02:03:28;;;;;;;18.55;4.70;;;;;;;;;;4997855;28;20380;-96
2024/03/14 02:05:57;;;;;;;21.15;5.57;;;;;;;;;;4997286;28;20022;-96
2024/03/14 02:08:22;;;;;;;22.13;5.90;;;;;;;;;;4999878;28;20193;-96
2024/03/14 02:10:47;;;;;;;17.40;4.20;;;;;;;;;;5000221;28;20030;-96
2024/03/14 02:13:13;;;;;;;21.60;6.85;;;;;;;;;;5000729;28;20049;-96
2024/03/14 02:15:40;;;;;;;23.15;4.85;;;;;;;;;;5000405;28;20023;-96
2024/03/14 02:18:06;;;;;;;16.75;4.80;;;;;;;;;;4998135;28;20041;-96
2024/03/14 02:20:31;;;;;;;18.92;4.38;;;;;;;;;;4993516;28;20022;-96
2024/03/14 02:22:58;;;;;;;23.08;4.53;;;;;;;;;;4993909;28;20025;-96
2024/03/14 02:25:25;;;;;;;17.00;5.03;;;;;;;;;;4993999;28;20026;-96
2024/03/14 02:27:50;;;;;;;21.73;5.18;;;;;;;;;;4994823;28;20019;-96
2024/03/14 02:30:16;;;;;;;28.98;5.07;;;;;;;;;;4994767;28;20044;-96
2024/03/14 02:32:41;;;;;;;17.92;5.25;;;;;;;;;;4994601;28;20025;-96
2024/03/14 02:35:06;;;;;;;22.73;5.03;;;;;;;;;;4994126;28;20026;-96
2024/03/14 02:37:32;;;;;;;22.90;4.22;;;;;;;;;;4993702;28;20088;-96
2024/03/14 02:39:58;;;;;;;18.45;4.97;;;;;;;;;;4994483;28;20031;-96
2024/03/14 02:42:23;;;;;;;29.60;4.95;;;;;;;;;;4994654;28;20045;-96
2024/03/14 02:44:48;;;;;;;22.92;4.55;;;;;;;;;;4995765;28;20046;-96
2024/03/14 02:47:14;;;;;;;16.63;4.15;;;;;;;;;;4996836;28;20117;-96
2024/03/14 02:49:39;;;;;;;19.80;4.60;;;;;;;;;;4997649;28;20507;-96
2024/03/14 02:52:05;;;;;;;19.77;4.90;;;;;;;;;;4998411;28;20018;-96
2024/03/14 02:54:31;;;;;;;22.88;7.03;;;;;;;;;;4997775;28;20026;-96
2024/03/14 02:56:56;;;;;;;20.60;4.15;;;;;;;;;;4998578;28;20015;-96
2024/03/14 02:59:22;;;;;;;23.70;4.55;;;;;;;;;;4998481;28;20037;-96
2024/03/14 03:01:48;;;;;;;18.88;4.47;;;;;;;;;;4998415;28;20081;-96
2024/03/14 03:04:14;;;;;;;13.38;4.30;;;;;;;;;;4998347;28;20331;-96
2024/03/14 03:06:48;;;;;;;13.07;3.70;;;;;;;;;;4996944;28;20019;-96
2024/03/14 03:09:14;;;;;;;17.33;4.72;;;;;;;;;;4996700;28;20034;-96
2024/03/14 03:11:40;;;;;;;23.05;4.10;;;;;;;;;;4995632;28;20023;-96
2024/03/14 03:14:05;;;;;;;13.68;4.15;;;;;;;;;;4995320;28;20103;-96
2024/03/14 03:16:31;;;;;;;16.75;4.05;;;;;;;;;;4995093;28;20077;-96
2024/03/14 03:18:58;;;;;;;17.95;5.32;;;;;;;;;;4994801;28;20038;-96
2024/03/14 03:21:24;;;;;;;20.50;4.93;;;;;;;;;;4995454;28;20018;-96
2024/03/14 03:23:49;;;;;;;14.23;4.00;;;;;;;;;;4994404;28;20022;-96
2024/03/14 03:26:15;;;;;;;15.40;4.75;;;;;;;;;;4994582;28;20114;-96
2024/03/14 03:28:40;;;;;;;18.38;4.22;;;;;;;;;;4995218;28;20130;-96
2024/03/14 03:31:08;;;;;;;11.75;3.75;;;;;;;;;;4997276;28;20022;-96
2024/03/14 03:33:34;;;;;;;14.80;4.03;;;;;;;;;;4999840;28;20496;-96
2024/03/14 03:35:59;;;;;;;17.38;3.95;;;;;;;;;;4999270;28;20023;-96
2024/03/14 03:38:24;;;;;;;16.92;3.53;;;;;;;;;;4999469;28;20117;-96
2024/03/14 03:40:51;;;;;;;9.50;3.05;;;;;;;;;;4996886;28;20467;-96
2024/03/14 03:43:16;;;;;;;13.15;3.22;;;;;;;;;;4996913;28;20014;-96
2024/03/14 03:45:42;;;;;;;21.95;4.18;;;;;;;;;;4998466;28;20023;-96
2024/03/14 03:48:11;;;;;;;13.15;3.00;;;;;;;;;;4998680;28;20081;-96
2024/03/14 03:50:36;;;;;;;15.10;3.38;;;;;;;;;;4998422;28;20142;-96
2024/03/14 03:53:02;;;;;;;13.48;3.53;;;;;;;;;;4996935;28;20042;-96
2024/03/14 03:55:27;;;;;;;12.82;3.15;;;;;;;;;;4996596;28;20081;-96
2024/03/14 03:57:53;;;;;;;11.40;3.28;;;;;;;;;;4997010;28;20015;-96
2024/03/14 04:00:33;;;;;;;14.98;3.33;;;;;;;;;;4996726;28;20481;-96
2024/03/14 04:02:59;;;;;;;13.63;4.05;;;;;;;;;;4996190;28;20018;-96
2024/03/14 04:05:27;;;;;;;11.93;3.60;;;;;;;;;;4995941;28;20029;-96
2024/03/14 04:07:53;;;;;;;21.33;3.78;;;;;;;;;;4995768;28;20023;-96
2024/03/14 04:10:23;;;;;;;17.00;3.30;;;;;;;;;;4995735;28;20080;-96
2024/03/14 04:12:49;;;;;;;16.23;3.80;;;;;;;;;;4996468;28;20019;-96
2024/03/14 04:15:15;;;;;;;20.90;4.13;;;;;;;;;;4996278;28;20486;-96
2024/03/14 04:17:41;;;;;;;18.98;3.95;;;;;;;;;;4996389;28;20030;-96
2024/03/14 04:20:11;;;;;;;15.57;3.22;;;;;;;;;;4995898;28;20113;-95
2024/03/14 04:22:37;;;;;;;14.52;3.67;;;;;;;;;;4996568;28;20543;-95
2024/03/14 04:25:10;;;;;;;17.05;3.38;;;;;;;;;;4996598;28;20140;-96
2024/03/14 04:27:35;;;;;;;16.70;3.70;;;;;;;;;;4995926;28;20022;-95
2024/03/14 04:30:01;;;;;;;23.90;4.65;;;;;;;;;;4996059;28;20076;-96
2024/03/14 04:32:26;;;;;;;14.27;3.35;;;;;;;;;;4996227;28;20031;-95
2024/03/14 04:34:53;;;;;;;15.57;3.58;;;;;;;;;;4995286;28;20026;-95
2024/03/14 04:37:18;;;;;;;20.70;3.58;;;;;;;;;;4995486;28;20025;-96
2024/03/14 04:39:43;;;;;;;17.30;4.78;;;;;;;;;;4995503;28;20030;-96
2024/03/14 04:42:08;;;;;;;12.27;4.20;;;;;;;;;;4994558;28;20018;-96
2024/03/14 04:44:35;;;;;;;21.48;4.35;;;;;;;;;;4995046;28;20026;-96
2024/03/14 04:47:03;;;;;;;26.30;4.75;;;;;;;;;;4995069;28;20021;-95
2024/03/14 04:49:28;;;;;;;17.67;4.57;;;;;;;;;;4994741;28;20022;-95
2024/03/14 04:51:54;;;;;;;14.15;4.00;;;;;;;;;;4995135;28;20169;-96
2024/03/14 04:54:20;;;;;;;14.90;3.58;;;;;;;;;;4995178;28;20045;-95
2024/03/14 04:56:45;;;;;;;19.85;4.80;;;;;;;;;;4995071;28;20026;-95
2024/03/14 04:59:12;;;;;;;11.38;3.67;;;;;;;;;;4994998;28;20034;-96
2024/03/14 05:01:38;;;;;;;14.07;3.58;;;;;;;;;;4995203;28;20029;-96
2024/03/14 05:04:03;;;;;;;19.05;3.55;;;;;;;;;;4994936;28;20113;-96
2024/03/14 05:06:28;;;;;;;20.55;3.63;;;;;;;;;;4995069;28;20377;-96
2024/03/14 05:08:54;;;;;;;11.27;3.40;;;;;;;;;;4994863;28;20053;-95
2024/03/14 05:11:19;;;;;;;14.38;3.70;;;;;;;;;;4994825;28;20260;-95
2024/03/14 05:13:47;;;;;;;17.40;4.35;;;;;;;;;;4994309;28;20019;-95
2024/03/14 05:16:13;;;;;;;12.75;3.50;;;;;;;;;;4994816;28;20053;-95
2024/03/14 05:18:38;;;;;;;16.40;4.57;;;;;;;;;;4994660;28;20057;-96
2024/03/14 05:21:04;;;;;;;16.70;4.07;;;;;;;;;;4994651;28;20026;-96
2024/03/14 05:23:29;;;;;;;15.25;4.80;;;;;;;;;;4994452;28;20121;-95
2024/03/14 05:25:55;;;;;;;12.32;5.70;;;;;;;;;;4994222;28;20026;-95
2024/03/14 05:28:20;;;;;;;11.30;4.80;;;;;;;;;;4994301;28;20026;-95
2024/03/14 05:30:45;;;;;;;12.73;4.88;;;;;;;;;;4996142;28;20030;-96
2024/03/14 05:33:11;;;;;;;30.33;5.68;;;;;;;;;;4995207;28;20014;-96
2024/03/14 05:35:36;;;;;;;20.05;5.22;;;;;;;;;;4993952;28;20622;-96
2024/03/14 05:38:01;;;;;;;14.43;5.50;;;;;;;;;;4994202;28;20034;-95
2024/03/14 05:40:26;;;;;;;15.30;4.97;;;;;;;;;;4994264;28;20178;-96
2024/03/14 05:42:55;;;;;;;15.30;4.93;;;;;;;;;;4993666;28;20389;-95
2024/03/14 05:45:21;;;;;;;15.13;5.60;;;;;;;;;;4993877;28;20018;-95
2024/03/14 05:47:46;;;;;;;18.17;4.45;;;;;;;;;;4993933;28;20023;-96
2024/03/14 05:50:11;;;;;;;18.35;4.75;;;;;;;;;;4994166;28;20015;-96
2024/03/14 05:52:37;;;;;;;15.43;5.57;;;;;;;;;;4994164;28;20491;-95
2024/03/14 05:55:03;;;;;;;16.35;4.78;;;;;;;;;;4993535;28;20027;-96
2024/03/14 05:57:28;;;;;;;18.75;6.53;;;;;;;;;;4993945;28;20026;-96
2024/03/14 05:59:54;;;;;;;15.05;6.07;;;;;;;;;;4993953;28;20539;-96
2024/03/14 06:02:19;;;;;;;21.73;5.20;;;;;;;;;;4993653;28;20041;-96
2024/03/14 06:04:44;;;;;;;19.00;4.95;;;;;;;;;;4993733;28;20030;-96
2024/03/14 06:07:10;;;;;;;16.13;5.30;;;;;;;;;;4994239;28;20057;-96
2024/03/14 06:09:44;;;;;;;19.73;5.43;;;;;;;;;;4994636;28;20018;-95
2024/03/14 06:12:09;;;;;;;22.42;5.30;;;;;;;;;;4997168;28;20026;-95
2024/03/14 06:14:35;;;;;;;18.83;5.28;;;;;;;;;;4997312;28;20403;-95
2024/03/14 06:17:00;;;;;;;14.40;5.45;;;;;;;;;;4996325;28;20085;-95
2024/03/14 06:19:26;;;;;;;19.70;5.00;;;;;;;;;;4996348;28;20128;-94
2024/03/14 06:21:51;;;;;;;17.55;5.20;;;;;;;;;;4996178;28;20022;-95
2024/03/14 06:24:17;;;;;;;20.17;5.13;;;;;;;;;;4997715;28;20030;-95
2024/03/14 06:26:43;;;;;;;11.65;4.20;;;;;;;;;;4997694;28;20026;-96
2024/03/14 06:29:09;;;;;;;13.60;4.10;;;;;;;;;;4998520;28;20169;-95
2024/03/14 06:31:35;;;;;;;12.48;4.38;;;;;;;;;;4995428;28;20018;-94
2024/03/14 06:34:00;;;;;;;12.90;4.85;;;;;;;;;;4997667;28;20046;-96
2024/03/14 06:36:26;;;;;;;19.65;4.88;;;;;;;;;;4998124;28;20023;-95
2024/03/14 06:38:52;;;;;;;12.40;4.75;;;;;;;;;;4996373;28;20014;-96
2024/03/14 06:41:17;;;;;;;15.80;4.88;;;;;;;;;;4997306;28;20031;-96
2024/03/14 06:43:46;;;;;;;14.85;5.30;;;;;;;;;;4997156;28;20026;-96
2024/03/14 06:46:13;;;;;;;15.45;4.97;;;;;;;;;;5002047;28;20045;-96
2024/03/14 06:48:38;;;;;;;17.83;4.97;;;;;;;;;;5005654;28;20038;-96
2024/03/14 06:51:03;;;;;;;14.57;4.80;;;;;;;;;;5001694;28;20018;-95
2024/03/14 06:53:38;;;;;;;16.42;4.32;;;;;;;;;;5031252;28;20094;-96
2024/03/14 06:56:08;;;;;;;16.13;4.32;;;;;;;;;;5020869;28;20057;-96
2024/03/14 06:58:33;;;;;;;15.20;4.88;;;;;;;;;;4993426;28;20023;-96
2024/03/14 07:00:59;;;;;;;10.82;4.07;;;;;;;;;;5007434;28;20048;-96
2024/03/14 07:03:25;;;;;;;16.47;4.73;;;;;;;;;;4998756;28;20022;-96
2024/03/14 07:05:57;;;;;;;16.05;5.28;;;;;;;;;;5002981;28;20253;-96
2024/03/14 07:08:26;;;;;;;12.13;4.18;;;;;;;;;;5082006;23;20097;-96
2024/03/14 07:10:55;;;;;;;11.77;4.45;;;;;;;;;;5002164;28;20026;-96
2024/03/14 07:13:23;;;;;;;12.73;3.97;;;;;;;;;;5004574;28;20025;-96
2024/03/14 07:15:49;;;;;;;11.65;4.43;;;;;;;;;;5002298;28;20022;-96
2024/03/14 07:18:16;;;;;;;14.50;4.30;;;;;;;;;;5003440;28;20507;-96
2024/03/14 07:20:45;;;;;;;16.35;4.75;;;;;;;;;;4998710;28;20029;-96
2024/03/14 07:23:11;;;;;;;11.98;4.05;;;;;;;;;;5000936;28;20026;-96
2024/03/14 07:25:36;;;;;;;17.63;5.40;;;;;;;;;;5003515;28;20472;-96
2024/03/14 07:28:03;;;;;;;15.80;4.80;;;;;;;;;;5004668;28;20038;-96
2024/03/14 07:30:30;;;;;;;14.13;4.20;;;;;;;;;;5010737;28;20003;-96
2024/03/14 07:33:48;;;;;;;11.73;4.30;;;;;;;;;;5238094;23;20041;-96
2024/03/14 07:46:54;;;;;;;18.23;4.75;;;;;;;;;;6189860;22;1739478;-96
2024/03/14 07:49:20;;;;;;;16.25;4.43;;;;;;;;;;6296862;22;20090;-96
2024/03/14 07:51:48;;;;;;;11.43;4.65;;;;;;;;;;6297648;22;20006;-96
2024/03/14 07:54:16;;;;;;;14.90;4.68;;;;;;;;;;6300390;22;19995;-96
2024/03/14 07:56:43;;;;;;;12.60;4.20;;;;;;;;;;6299408;22;20003;-96
2024/03/14 07:59:32;;;;;;;17.95;4.88;;;;;;;;;;6301596;22;20043;-96
2024/03/14 08:02:07;;;;;;;19.35;4.85;;;;;;;;;;6309777;22;20011;-96
2024/03/14 08:07:48;;;;;;;21.13;5.28;;;;;;;;;;6310166;22;20011;-96
2024/03/14 08:10:13;;;;;;;16.35;5.18;;;;;;;;;;6307218;22;20038;-96
2024/03/14 08:12:42;;;;;;;20.48;4.97;;;;;;;;;;6305912;22;19979;-96
2024/03/14 08:15:16;;;;;;;12.13;4.85;;;;;;;;;;6280035;22;20012;-96
2024/03/14 08:17:46;;;;;;;12.60;6.35;;;;;;;;;;6307448;22;20006;-96
2024/03/14 08:20:15;;;;;;;13.88;4.78;;;;;;;;;;6307432;22;20023;-96
2024/03/14 08:22:52;;;;;;;12.52;3.38;;;;;;;;;;6307859;22;20019;-96
2024/03/14 08:25:41;;;;;;;17.08;3.78;;;;;;;;;;6299473;22;20026;-96
2024/03/14 08:28:17;;;;;;;15.65;3.50;;;;;;;;;;6306189;22;20003;-96
2024/03/14 08:31:00;;;;;;;15.35;4.65;;;;;;;;;;6305645;22;20000;-96
2024/03/14 08:33:32;;;;;;;17.20;3.78;;;;;;;;;;6310658;22;20004;-96
2024/03/14 08:36:04;;;;;;;12.55;3.30;;;;;;;;;;6269446;22;20012;-96
2024/03/14 08:38:35;;;;;;;17.25;4.10;;;;;;;;;;6309706;22;19987;-96
2024/03/14 08:41:09;;;;;;;16.95;3.63;;;;;;;;;;6309160;22;19996;-96
2024/03/14 08:44:06;;;;;;;15.02;3.83;;;;;;;;;;6305398;22;19980;-96
2024/03/14 08:46:33;;;;;;;14.00;3.95;;;;;;;;;;6334629;22;20014;-96
2024/03/14 08:49:24;;;;;;;19.40;4.03;;;;;;;;;;6335037;22;20004;-96
2024/03/14 08:51:56;;;;;;;11.07;3.53;;;;;;;;;;6329842;22;20014;-96
2024/03/14 08:54:33;;;;;;;9.32;3.67;;;;;;;;;;6308191;22;19991;-96
2024/03/14 08:57:26;;;;;;;16.58;3.72;;;;;;;;;;6334052;22;19988;-96
2024/03/14 09:00:17;;;;;;;9.77;3.00;;;;;;;;;;6308908;22;19987;-96
2024/03/14 09:02:49;;;;;;;;;;;;;;;;;;6336447;22;20014;-96
2024/03/14 09:05:20;;;;;;;18.15;4.00;;;;;;;;;;6333990;22;19903;-96
2024/03/14 09:07:45;;;;;;;10.85;3.25;;;;;;;;;;6301576;22;20003;-96
2024/03/14 09:10:22;;;;;;;15.57;4.38;;;;;;;;;;6292206;22;20063;-96
2024/03/14 09:12:48;;;;;;;10.68;3.03;;;;;;;;;;6280804;22;20006;-96
2024/03/14 09:15:14;;;;;;;10.80;3.63;;;;;;;;;;6280662;22;20337;-95
2024/03/14 09:17:40;;;;;;;11.02;3.53;;;;;;;;;;6280658;22;20026;-96
2024/03/14 09:20:08;;;;;;;9.07;2.97;;;;;;;;;;6281037;22;20003;-96
2024/03/14 09:22:34;;;;;;;13.82;4.20;;;;;;;;;;6281188;22;19991;-96
2024/03/14 09:25:01;;;;;;;13.35;3.55;;;;;;;;;;6280996;22;20004;-96
2024/03/14 09:27:26;;;;;;;11.13;4.18;;;;;;;;;;6280772;22;20003;-95
2024/03/14 09:29:54;;;;;;;12.15;4.38;;;;;;;;;;6280873;22;20499;-96
2024/03/14 09:32:19;;;;;;;10.18;3.47;;;;;;;;;;6280719;22;20007;-95
2024/03/14 09:34:45;;;;;;;9.15;3.30;;;;;;;;;;6280564;22;20007;-96
2024/03/14 09:37:10;;;;;;;13.90;3.30;;;;;;;;;;6280497;22;20034;-96
2024/03/14 09:39:35;;;;;;;14.18;5.20;;;;;;;;;;6280884;22;20002;-96
2024/03/14 09:42:01;;;;;;;11.60;3.63;;;;;;;;;;6280604;22;20004;-96
2024/03/14 09:44:27;;;;;;;17.30;3.97;;;;;;;;;;6281173;22;20493;-96
2024/03/14 09:46:59;;;;;;;13.50;3.40;;;;;;;;;;6280455;22;20453;-96
2024/03/14 09:49:25;;;;;;;17.02;4.03;;;;;;;;;;6280371;22;20415;-96
2024/03/14 09:51:52;;;;;;;14.95;4.35;;;;;;;;;;6280536;22;20007;-96
2024/03/14 09:54:20;;;;;;;7.18;3.33;;;;;;;;;;6280768;22;19999;-96
2024/03/14 09:56:45;;;;;;;11.65;2.97;;;;;;;;;;6280543;22;20006;-96
2024/03/14 09:59:10;;;;;;;11.20;2.95;;;;;;;;;;6279619;22;20007;-95
2024/03/14 10:01:37;;;;;;;10.45;3.42;;;;;;;;;;6280312;22;20000;-96
2024/03/14 10:04:02;;;;;;;12.32;3.30;;;;;;;;;;6280910;22;20052;-96
2024/03/14 10:06:28;;;;;;;13.52;2.95;;;;;;;;;;6280368;22;20003;-96
2024/03/14 10:08:53;;;;;;;10.27;2.92;;;;;;;;;;6280362;22;20003;-95
2024/03/14 10:11:20;;;;;;;9.77;2.97;;;;;;;;;;6280250;22;20077;-96
2024/03/14 10:13:46;;;;;;;8.90;2.92;;;;;;;;;;6280318;22;20062;-96
2024/03/14 10:16:12;;;;;;;4.55;2.60;;;;;;;;;;6280116;22;20043;-96
2024/03/14 10:18:39;;;;;;;6.03;2.78;;;;;;;;;;6280494;22;19991;-96
2024/03/14 10:21:05;;;;;;;10.13;3.08;;;;;;;;;;6280653;22;19999;-96
2024/03/14 10:23:30;;;;;;;18.30;3.00;;;;;;;;;;6281272;22;19995;-96
2024/03/14 10:25:56;;;;;;;11.73;3.58;;;;;;;;;;6280911;22;20052;-96
2024/03/14 10:28:28;;;;;;;10.27;2.80;;;;;;;;;;6282018;22;19999;-96
2024/03/14 10:30:57;;;;;;;11.30;2.85;;;;;;;;;;6282844;22;20003;-96
2024/03/14 10:33:26;;;;;;;8.60;2.42;;;;;;;;;;6284340;22;20047;-95
2024/03/14 10:35:55;;;;;;;6.18;3.17;;;;;;;;;;6287596;22;20018;-96
2024/03/14 10:38:25;;;;;;;9.50;2.15;;;;;;;;;;6290423;22;19995;-96
2024/03/14 10:40:51;;;;;;;11.02;2.75;;;;;;;;;;6295785;22;20003;-96
2024/03/14 10:43:20;;;;;;;7.10;2.35;;;;;;;;;;6298521;22;20030;-96
2024/03/14 10:45:52;;;;;;;10.52;3.42;;;;;;;;;;6300632;22;20011;-96
2024/03/14 10:48:17;;;;;;;;;;;;;;;;;;6302194;22;19997;-96
2024/03/14 10:50:47;;;;;;;7.38;2.75;;;;;;;;;;6301499;22;19906;-96
2024/03/14 10:53:19;;;;;;;18.77;5.28;;;;;;;;;;6330288;22;20003;-96
2024/03/14 10:55:47;;;;;;;11.68;3.42;;;;;;;;;;6305937;22;20003;-96
2024/03/14 10:58:18;;;;;;;8.55;2.63;;;;;;;;;;6329068;22;20002;-96
2024/03/14 11:00:44;;;;;;;10.90;2.60;;;;;;;;;;6279002;22;20082;-96
2024/03/14 11:03:17;;;;;;;6.97;2.20;;;;;;;;;;6278170;22;20031;-96
2024/03/14 11:05:52;;;;;;;9.55;2.50;;;;;;;;;;6280684;22;20013;-96
2024/03/14 11:08:39;;;;;;;11.13;2.70;;;;;;;;;;6303374;22;19999;-96
2024/03/14 11:11:05;;;;;;;9.00;2.10;;;;;;;;;;6303603;22;20010;-96
2024/03/14 11:13:36;;;;;;;10.43;2.08;;;;;;;;;;6304510;22;19999;-97
2024/03/14 11:16:05;;;;;;;8.25;2.25;;;;;;;;;;6303455;22;20018;-96
2024/03/14 11:18:37;;;;;;;9.80;2.50;;;;;;;;;;6328247;22;19995;-96
2024/03/14 11:21:04;;;;;;;9.02;2.05;;;;;;;;;;6303834;22;19995;-96
2024/03/14 11:23:40;;;;;;;10.88;2.78;;;;;;;;;;6332486;22;20025;-96
2024/03/14 11:26:13;;;;;;;;;;;;;;;;;;6303319;22;19991;-96
2024/03/14 11:28:40;;;;;;;5.57;2.10;;;;;;;;;;6305648;22;19899;-96
2024/03/14 11:31:09;;;;;;;8.75;2.22;;;;;;;;;;6304196;22;20025;-96
2024/03/14 11:33:39;;;;;;;15.68;2.90;;;;;;;;;;6304219;22;20330;-96
2024/03/14 11:36:08;;;;;;;12.20;2.47;;;;;;;;;;6306705;22;20007;-96
2024/03/14 11:38:38;;;;;;;10.60;2.13;;;;;;;;;;6279506;22;19999;-96
2024/03/14 11:41:13;;;;;;;8.93;2.40;;;;;;;;;;6305638;22;20003;-96
2024/03/14 11:43:41;;;;;;;6.78;2.20;;;;;;;;;;6306200;22;19988;-96
2024/03/14 11:46:14;;;;;;;10.15;2.00;;;;;;;;;;6302769;22;19999;-96
2024/03/14 11:48:43;;;;;;;15.88;2.78;;;;;;;;;;6306355;22;19999;-96
2024/03/14 11:51:11;;;;;;;9.32;2.80;;;;;;;;;;6251705;22;20091;-96
2024/03/14 11:53:39;;;;;;;9.05;2.33;;;;;;;;;;6254293;22;20086;-95
2024/03/14 11:56:05;;;;;;;7.68;2.20;;;;;;;;;;6261421;22;20007;-96
2024/03/14 11:58:31;;;;;;;10.80;2.47;;;;;;;;;;6257880;22;20002;-96
2024/03/14 12:00:57;;;;;;;7.70;2.72;;;;;;;;;;6258745;22;20000;-96
2024/03/14 12:03:25;;;;;;;11.38;3.53;;;;;;;;;;6260519;22;19996;-96
2024/03/14 12:05:57;;;;;;;10.00;3.00;;;;;;;;;;6259282;22;20000;-96
2024/03/14 12:08:27;;;;;;;17.50;3.42;;;;;;;;;;6261945;22;20056;-96
2024/03/14 12:10:54;;;;;;;11.57;2.58;;;;;;;;;;6261689;22;20057;-95
2024/03/14 12:13:23;;;;;;;7.57;2.28;;;;;;;;;;6264788;22;20003;-96
2024/03/14 12:16:03;;;;;;;12.27;2.70;;;;;;;;;;6268798;22;20018;-96
2024/03/14 12:18:29;;;;;;;7.75;2.95;;;;;;;;;;6268431;22;20027;-96
2024/03/14 12:20:54;;;;;;;9.45;2.28;;;;;;;;;;6270539;22;20345;-96
2024/03/14 12:23:22;;;;;;;11.20;2.55;;;;;;;;;;6278670;22;20008;-96
2024/03/14 12:25:50;;;;;;;9.88;2.40;;;;;;;;;;6279946;22;19980;-96
2024/03/14 12:28:19;;;;;;;8.40;1.88;;;;;;;;;;6279774;22;19995;-96
2024/03/14 12:30:56;;;;;;;10.15;3.03;;;;;;;;;;6279556;22;19976;-94
2024/03/14 12:33:22;;;;;;;6.15;2.00;;;;;;;;;;6276987;22;20009;-96
2024/03/14 12:35:50;;;;;;;9.52;2.15;;;;;;;;;;6276366;22;20003;-96
2024/03/14 12:38:22;;;;;;;14.80;3.17;;;;;;;;;;6279107;22;19984;-96
2024/03/14 12:40:49;;;;;;;15.85;3.63;;;;;;;;;;6279762;22;19994;-95
2024/03/14 12:43:15;;;;;;;7.55;2.05;;;;;;;;;;6276803;22;20000;-96
2024/03/14 12:45:41;;;;;;;12.70;2.53;;;;;;;;;;6278310;22;20023;-95
2024/03/14 12:48:15;;;;;;;9.98;2.45;;;;;;;;;;6278267;22;20018;-95
2024/03/14 12:50:40;;;;;;;10.27;2.15;;;;;;;;;;6269392;22;20038;-96
2024/03/14 12:53:15;;;;;;;7.45;1.95;;;;;;;;;;6265247;22;20342;-96
2024/03/14 12:55:49;;;;;;;10.38;2.30;;;;;;;;;;6264475;22;20027;-96
2024/03/14 12:58:22;;;;;;;6.07;1.90;;;;;;;;;;6260938;22;19992;-96
2024/03/14 13:00:54;;;;;;;9.18;1.88;;;;;;;;;;6262062;22;20061;-96
2024/03/14 13:03:22;;;;;;;6.35;2.00;;;;;;;;;;6264279;22;20376;-96
2024/03/14 13:05:51;;;;;;;9.85;2.35;;;;;;;;;;6261046;22;20010;-96
2024/03/14 13:08:20;;;;;;;11.48;2.95;;;;;;;;;;6263405;22;20033;-96
2024/03/14 13:10:45;;;;;;;10.77;3.10;;;;;;;;;;6261331;22;20030;-96
2024/03/14 13:13:13;;;;;;;12.23;2.20;;;;;;;;;;6261253;22;19996;-96
2024/03/14 13:15:40;;;;;;;9.18;2.63;;;;;;;;;;6262350;22;20012;-96
2024/03/14 13:18:13;;;;;;;8.75;2.70;;;;;;;;;;6260786;22;20023;-96
2024/03/14 13:20:41;;;;;;;12.60;2.80;;;;;;;;;;6261021;22;20008;-96
2024/03/14 13:23:07;;;;;;;10.85;2.58;;;;;;;;;;6260580;22;20002;-96
2024/03/14 13:25:37;;;;;;;13.07;3.65;;;;;;;;;;6263112;22;20004;-96
2024/03/14 13:28:07;;;;;;;10.77;3.15;;;;;;;;;;6286749;22;19991;-96
2024/03/14 13:30:32;;;;;;;13.68;3.22;;;;;;;;;;6257596;22;19999;-96
2024/03/14 13:32:59;;;;;;;15.10;3.58;;;;;;;;;;6259419;22;19999;-96
2024/03/14 13:35:26;;;;;;;14.85;3.95;;;;;;;;;;6259550;22;20338;-96
2024/03/14 13:37:51;;;;;;;14.60;3.47;;;;;;;;;;6256891;22;20379;-96
2024/03/14 13:40:22;;;;;;;14.25;3.78;;;;;;;;;;6256320;22;20010;-96
2024/03/14 13:42:47;;;;;;;14.07;3.65;;;;;;;;;;6258696;22;19996;-96
2024/03/14 13:45:22;;;;;;;21.30;3.97;;;;;;;;;;6258806;22;20003;-96
2024/03/14 13:47:47;;;;;;;12.13;3.42;;;;;;;;;;6259506;22;20308;-96
2024/03/14 13:50:16;;;;;;;8.00;3.67;;;;;;;;;;6260468;22;20078;-96
2024/03/14 13:52:43;;;;;;;12.07;3.30;;;;;;;;;;6259928;22;20011;-95
2024/03/14 13:55:24;;;;;;;11.60;3.20;;;;;;;;;;6257105;22;20338;-96
2024/03/14 13:57:50;;;;;;;13.95;3.05;;;;;;;;;;6257255;22;20023;-96
2024/03/14 14:00:22;;;;;;;14.38;4.47;;;;;;;;;;6258126;22;20000;-96
2024/03/14 14:02:48;;;;;;;19.73;4.95;;;;;;;;;;6260977;22;20021;-96
2024/03/14 14:05:14;;;;;;;15.30;4.57;;;;;;;;;;6260049;22;20074;-96
2024/03/14 14:07:40;;;;;;;11.45;3.72;;;;;;;;;;6261157;22;19995;-96
2024/03/14 14:10:06;;;;;;;17.00;3.75;;;;;;;;;;6261287;22;20029;-96
2024/03/14 14:12:31;;;;;;;14.02;3.90;;;;;;;;;;6260002;22;19999;-96
2024/03/14 14:14:58;;;;;;;12.18;3.70;;;;;;;;;;6254379;22;20008;-96
2024/03/14 14:17:23;;;;;;;14.43;4.13;;;;;;;;;;6254308;22;20003;-96
2024/03/14 14:19:48;;;;;;;13.30;4.75;;;;;;;;;;6253064;22;20004;-96
2024/03/14 14:22:13;;;;;;;17.40;3.60;;;;;;;;;;6254511;22;20004;-96
2024/03/14 14:24:39;;;;;;;26.70;5.25;;;;;;;;;;6253984;22;20426;-96
2024/03/14 14:27:04;;;;;;;17.90;4.25;;;;;;;;;;6253867;22;20422;-96
2024/03/14 14:29:30;;;;;;;15.73;3.70;;;;;;;;;;6254812;22;20034;-95
2024/03/14 14:31:55;;;;;;;16.45;3.85;;;;;;;;;;6255239;22;20053;-96
2024/03/14 14:34:22;;;;;;;13.60;3.95;;;;;;;;;;6254548;22;20426;-96
2024/03/14 14:36:47;;;;;;;12.65;4.13;;;;;;;;;;6254426;22;20015;-96
2024/03/14 14:39:13;;;;;;;16.23;4.38;;;;;;;;;;6254346;22;20437;-96
2024/03/14 14:41:38;;;;;;;20.92;5.05;;;;;;;;;;6253339;22;20007;-96
2024/03/14 14:44:04;;;;;;;14.60;4.68;;;;;;;;;;6253250;22;20542;-95
2024/03/14 14:46:29;;;;;;;19.75;4.43;;;;;;;;;;6252113;22;19995;-96
2024/03/14 14:48:54;;;;;;;14.77;4.55;;;;;;;;;;6252405;22;20007;-96
2024/03/14 14:51:20;;;;;;;15.32;4.72;;;;;;;;;;6252260;22;20088;-96